createdAt,value
2019-05-11T00:02:48.345Z,101149.97
2019-05-11T00:05:52.633Z,101154.34
2019-05-11T00:08:56.914Z,101153.45
2019-05-11T00:12:01.248Z,101144.24
2019-05-11T00:15:05.605Z,101145.10
2019-05-11T00:18:09.947Z,101147.71
2019-05-11T00:21:14.238Z,101149.48
2019-05-11T00:24:18.535Z,101152.97
2019-05-11T00:27:22.832Z,101152.52
2019-05-11T00:30:27.157Z,101154.30
2019-05-11T00:33:31.393Z,101152.98
2019-05-11T00:36:35.668Z,101152.92
2019-05-11T00:39:39.950Z,101155.56
2019-05-11T00:42:44.242Z,101156.89
2019-05-11T00:45:48.549Z,101160.79
2019-05-11T00:48:52.839Z,101155.49
2019-05-11T00:51:57.115Z,101157.67
2019-05-11T00:55:01.382Z,101151.95
2019-05-11T00:58:05.665Z,101146.23
2019-05-11T01:01:09.951Z,101156.77
2019-05-11T01:04:14.243Z,101158.94
2019-05-11T01:07:18.603Z,101147.52
2019-05-11T01:10:33.820Z,101152.33
2019-05-11T01:13:28.892Z,101147.47
2019-05-11T01:16:33.219Z,101150.95
2019-05-11T01:19:37.702Z,101152.27
2019-05-11T01:22:41.985Z,101156.22
2019-05-11T01:25:46.273Z,101154.91
2019-05-11T01:28:50.549Z,101153.98
2019-05-11T01:31:54.813Z,101157.93
2019-05-11T01:34:59.104Z,101153.98
2019-05-11T01:38:03.394Z,101155.80
2019-05-11T01:41:07.678Z,101163.69
2019-05-11T01:44:11.967Z,101159.77
2019-05-11T01:47:16.242Z,101156.28
2019-05-11T01:50:20.558Z,101155.79
2019-05-11T01:53:24.817Z,101153.09
2019-05-11T01:56:29.097Z,101152.17
2019-05-11T01:59:33.391Z,101159.18
2019-05-11T02:02:37.686Z,101157.33
2019-05-11T02:05:41.984Z,101153.77
2019-05-11T02:08:46.267Z,101155.55
2019-05-11T02:11:50.557Z,101161.20
2019-05-11T02:14:54.810Z,101169.08
2019-05-11T02:17:59.104Z,101174.68
2019-05-11T02:21:03.384Z,101172.89
2019-05-11T02:24:07.664Z,101179.47
2019-05-11T02:27:11.964Z,101175.05
2019-05-11T02:30:16.342Z,101182.06
2019-05-11T02:33:20.627Z,101179.80
2019-05-11T02:36:24.914Z,101179.80
2019-05-11T02:39:29.182Z,101182.81
2019-05-11T02:42:33.446Z,101186.73
2019-05-11T02:45:42.351Z,101186.28
2019-05-11T02:48:46.635Z,101183.22
2019-05-11T02:51:51.014Z,101186.22
2019-05-11T02:54:57.387Z,101186.16
2019-05-11T02:58:01.663Z,101186.94
2019-05-11T03:01:05.939Z,101188.69
2019-05-11T03:04:10.234Z,101200.09
2019-05-11T03:07:14.515Z,101196.58
2019-05-11T03:10:18.825Z,101199.72
2019-05-11T03:13:23.112Z,101202.82
2019-05-11T03:16:27.397Z,101204.09
2019-05-11T03:19:31.655Z,101202.34
2019-05-11T03:22:35.928Z,101209.72
2019-05-11T03:25:40.213Z,101212.31
2019-05-11T03:28:44.486Z,101214.38
2019-05-11T03:31:48.790Z,101214.36
2019-05-11T03:34:53.054Z,101218.35
2019-05-11T03:37:57.336Z,101222.31
2019-05-11T03:41:01.640Z,101217.11
2019-05-11T03:44:05.927Z,101224.09
2019-05-11T03:47:10.197Z,101232.87
2019-05-11T03:50:14.967Z,101230.71
2019-05-11T03:53:19.253Z,101227.91
2019-05-11T03:56:23.515Z,101227.48
2019-05-11T03:59:27.809Z,101231.84
2019-05-11T04:02:32.088Z,101242.72
2019-05-11T04:05:36.405Z,101238.38
2019-05-11T04:08:40.753Z,101236.64
2019-05-11T04:11:45.015Z,101227.84
2019-05-11T04:14:49.301Z,101238.31
2019-05-11T04:17:53.591Z,101238.83
2019-05-11T04:20:57.920Z,101235.00
2019-05-11T04:24:02.195Z,101234.12
2019-05-11T04:27:06.489Z,101246.00
2019-05-11T04:30:10.861Z,101250.05
2019-05-11T04:33:15.152Z,101250.99
2019-05-11T04:36:19.471Z,101254.52
2019-05-11T04:39:23.787Z,101248.88
2019-05-11T04:42:28.103Z,101244.17
2019-05-11T04:45:32.415Z,101242.48
2019-05-11T04:48:36.737Z,101236.41
2019-05-11T04:51:41.030Z,101227.70
2019-05-11T04:54:45.295Z,101226.47
2019-05-11T04:57:49.578Z,101234.00
2019-05-11T05:00:53.919Z,101233.64
2019-05-11T05:04:13.290Z,101244.69
2019-05-11T05:07:05.362Z,101240.34
2019-05-11T05:10:13.918Z,101241.24
2019-05-11T05:13:16.372Z,101247.48
2019-05-11T05:16:20.671Z,101245.36
2019-05-11T05:19:24.991Z,101244.48
2019-05-11T05:22:29.316Z,101253.38
2019-05-11T05:25:33.638Z,101252.09
2019-05-11T05:28:37.911Z,101252.97
2019-05-11T05:31:42.279Z,101249.48
2019-05-11T05:34:46.547Z,101249.91
2019-05-11T05:37:50.859Z,101260.03
2019-05-11T05:40:55.133Z,101265.30
2019-05-11T05:43:59.398Z,101261.80
2019-05-11T05:47:03.708Z,101263.08
2019-05-11T05:50:08.300Z,101271.01
2019-05-11T05:53:12.581Z,101277.16
2019-05-11T05:56:16.868Z,101282.41
2019-05-11T05:59:21.188Z,101287.66
2019-05-11T06:02:25.488Z,101282.34
2019-05-11T06:05:29.776Z,101282.71
2019-05-11T06:08:34.087Z,101280.49
2019-05-11T06:11:38.426Z,101279.99
2019-05-11T06:14:42.777Z,101285.65
2019-05-11T06:17:47.079Z,101286.95
2019-05-11T06:20:51.394Z,101295.30
2019-05-11T06:23:55.667Z,101300.06
2019-05-11T06:26:59.951Z,101288.50
2019-05-11T06:30:04.566Z,101289.78
2019-05-11T06:33:08.960Z,101287.05
2019-05-11T06:36:13.341Z,101290.80
2019-05-11T06:39:17.737Z,101289.39
2019-05-11T06:42:22.088Z,101290.14
2019-05-11T06:45:26.398Z,101289.67
2019-05-11T06:48:30.703Z,101294.89
2019-05-11T06:51:34.994Z,101298.83
2019-05-11T06:54:39.275Z,101301.34
2019-05-11T06:57:43.591Z,101302.03
2019-05-11T07:00:47.907Z,101304.13
2019-05-11T07:03:52.193Z,101306.16
2019-05-11T07:06:56.500Z,101305.47
2019-05-11T07:10:03.835Z,101301.66
2019-05-11T07:13:08.793Z,101305.42
2019-05-11T07:16:13.125Z,101311.37
2019-05-11T07:19:17.437Z,101314.81
2019-05-11T07:22:21.746Z,101312.61
2019-05-11T07:25:26.304Z,101323.64
2019-05-11T07:28:30.607Z,101323.17
2019-05-11T07:31:34.978Z,101326.08
2019-05-11T07:34:39.290Z,101336.28
2019-05-11T07:37:43.567Z,101335.88
2019-05-11T07:40:47.872Z,101337.27
2019-05-11T07:43:52.170Z,101340.99
2019-05-11T07:46:58.586Z,101345.63
2019-05-11T07:50:02.573Z,101335.94
2019-05-11T07:53:08.151Z,101337.72
2019-05-11T07:56:12.594Z,101340.38
2019-05-11T07:59:18.392Z,101338.58
2019-05-11T08:02:22.922Z,101337.02
2019-05-11T08:05:28.360Z,101337.05
2019-05-11T08:08:32.814Z,101339.41
2019-05-11T08:11:38.916Z,101344.06
2019-05-11T08:14:56.673Z,101338.34
2019-05-11T08:17:49.171Z,101337.63
2019-05-11T08:20:53.472Z,101336.03
2019-05-11T08:23:58.745Z,101339.45
2019-05-11T08:27:03.193Z,101346.64
2019-05-11T08:30:08.573Z,101350.77
2019-05-11T08:33:12.879Z,101338.55
2019-05-11T08:36:18.448Z,101333.75
2019-05-11T08:39:22.834Z,101344.63
2019-05-11T08:42:28.844Z,101348.13
2019-05-11T08:45:33.358Z,101347.27
2019-05-11T08:48:38.831Z,101347.30
2019-05-11T08:51:43.267Z,101352.67
2019-05-11T08:54:48.696Z,101351.57
2019-05-11T08:57:53.116Z,101350.93
2019-05-11T09:00:58.219Z,101350.39
2019-05-11T09:04:02.794Z,101351.53
2019-05-11T09:07:07.881Z,101357.95
2019-05-11T09:10:12.603Z,101360.18
2019-05-11T09:13:18.557Z,101354.41
2019-05-11T09:16:23.039Z,101354.24
2019-05-11T09:19:28.457Z,101328.67
2019-05-11T09:22:33.112Z,101345.31
2019-05-11T09:25:38.472Z,101354.94
2019-05-11T09:28:43.028Z,101347.53
2019-05-11T09:31:48.733Z,101352.83
2019-05-11T09:34:53.105Z,101355.87
2019-05-11T09:37:58.762Z,101352.62
2019-05-11T09:41:03.255Z,101356.13
2019-05-11T09:44:08.967Z,101357.01
2019-05-11T09:47:13.625Z,101361.44
2019-05-11T09:50:18.221Z,101357.88
2019-05-11T09:53:22.505Z,101367.16
2019-05-11T09:56:28.774Z,101367.16
2019-05-11T09:59:33.115Z,101365.00
2019-05-11T10:02:38.520Z,101365.05
2019-05-11T10:05:43.251Z,101366.00
2019-05-11T10:08:48.717Z,101376.82
2019-05-11T10:11:53.195Z,101370.69
2019-05-11T10:14:59.119Z,101366.48
2019-05-11T10:18:03.587Z,101366.48
2019-05-11T10:21:08.249Z,101362.13
2019-05-11T10:24:12.520Z,101368.70
2019-05-11T10:27:19.207Z,101363.28
2019-05-11T10:30:23.524Z,101369.45
2019-05-11T10:33:28.229Z,101372.19
2019-05-11T10:36:32.578Z,101377.55
2019-05-11T10:39:38.320Z,101377.35
2019-05-11T10:42:42.805Z,101376.14
2019-05-11T10:45:48.378Z,101383.73
2019-05-11T10:48:52.710Z,101331.70
2019-05-11T10:51:58.662Z,101372.00
2019-05-11T10:55:03.193Z,101379.91
2019-05-11T10:58:08.654Z,101373.42
2019-05-11T11:01:13.016Z,101372.17
2019-05-11T11:04:18.429Z,101375.48
2019-05-11T11:07:22.866Z,101382.30
2019-05-11T11:10:28.606Z,101376.98
2019-05-11T11:13:33.099Z,101377.08
2019-05-11T11:16:42.049Z,101375.92
2019-05-11T11:19:44.572Z,101378.83
2019-05-11T11:22:48.905Z,101377.44
2019-05-11T11:25:53.172Z,101377.44
2019-05-11T11:28:58.139Z,101368.25
2019-05-11T11:32:02.504Z,101377.21
2019-05-11T11:35:08.527Z,101372.69
2019-05-11T11:38:12.944Z,101372.69
2019-05-11T11:41:18.504Z,101379.03
2019-05-11T11:44:23.106Z,101377.86
2019-05-11T11:47:28.182Z,101383.55
2019-05-11T11:50:32.512Z,101370.98
2019-05-11T11:53:38.367Z,101372.59
2019-05-11T11:56:42.707Z,101372.59
2019-05-11T11:59:48.059Z,101374.27
2019-05-11T12:02:52.575Z,101369.40
2019-05-11T12:05:59.305Z,101374.12
2019-05-11T12:09:08.865Z,101383.28
2019-05-11T12:12:13.324Z,101374.84
2019-05-11T12:15:17.918Z,101375.14
2019-05-11T12:18:22.231Z,101384.23
2019-05-11T12:21:27.707Z,101377.41
2019-05-11T12:24:32.095Z,101384.17
2019-05-11T12:27:38.409Z,101387.38
2019-05-11T12:30:42.389Z,101382.96
2019-05-11T12:33:48.317Z,101387.11
2019-05-11T12:36:52.828Z,101385.87
2019-05-11T12:39:58.280Z,101387.97
2019-05-11T12:43:02.699Z,101383.54
2019-05-11T12:46:08.081Z,101391.30
2019-05-11T12:49:12.575Z,101396.86
2019-05-11T12:52:18.428Z,101395.67
2019-05-11T12:55:24.013Z,101387.94
2019-05-11T12:58:28.293Z,101391.83
2019-05-11T13:01:32.593Z,101394.93
2019-05-11T13:04:38.489Z,101393.45
2019-05-11T13:07:42.801Z,101401.33
2019-05-11T13:10:47.930Z,101403.34
2019-05-11T13:13:52.329Z,101407.81
2019-05-11T13:16:58.751Z,101414.72
2019-05-11T13:20:02.592Z,101419.66
2019-05-11T13:23:07.995Z,101423.39
2019-05-11T13:26:13.507Z,101417.84
2019-05-11T13:29:18.233Z,101417.16
2019-05-11T13:32:22.518Z,101415.53
2019-05-11T13:35:28.560Z,101421.33
2019-05-11T13:38:32.952Z,101415.14
2019-05-11T13:41:38.305Z,101426.91
2019-05-11T13:44:42.680Z,101420.16
2019-05-11T13:47:54.489Z,101426.46
2019-05-11T13:50:52.915Z,101428.05
2019-05-11T13:53:58.440Z,101437.84
2019-05-11T13:57:02.841Z,101435.39
2019-05-11T14:00:08.425Z,101430.69
2019-05-11T14:03:12.982Z,101435.16
2019-05-11T14:06:18.483Z,101436.66
2019-05-11T14:09:22.969Z,101441.38
2019-05-11T14:12:28.543Z,101439.53
2019-05-11T14:15:33.001Z,101453.63
2019-05-11T14:18:38.643Z,101460.14
2019-05-11T14:21:43.070Z,101456.40
2019-05-11T14:24:48.322Z,101459.49
2019-05-11T14:27:52.673Z,101461.07
2019-05-11T14:30:57.846Z,101476.84
2019-05-11T14:34:02.269Z,101469.17
2019-05-11T14:37:08.596Z,101467.77
2019-05-11T14:40:12.553Z,101476.28
2019-05-11T14:43:18.777Z,101476.89
2019-05-11T14:46:22.853Z,101487.74
2019-05-11T14:49:27.608Z,101488.49
2019-05-11T14:52:31.979Z,101495.23
2019-05-11T14:55:38.068Z,101501.22
2019-05-11T14:58:42.237Z,101498.35
2019-05-11T15:01:48.803Z,101507.03
2019-05-11T15:04:52.545Z,101513.62
2019-05-11T15:07:58.182Z,101520.83
2019-05-11T15:11:02.677Z,101527.54
2019-05-11T15:14:08.080Z,101528.60
2019-05-11T15:17:12.621Z,101532.09
2019-05-11T15:20:17.886Z,101534.69
2019-05-11T15:23:22.161Z,101539.41
2019-05-11T15:26:27.827Z,101542.80
2019-05-11T15:29:32.201Z,101554.83
2019-05-11T15:32:37.602Z,101554.23
2019-05-11T15:35:41.937Z,101561.77
2019-05-11T15:38:48.142Z,101562.02
2019-05-11T15:42:06.539Z,101561.17
2019-05-11T15:44:58.669Z,101571.09
2019-05-11T15:48:02.951Z,101578.06
2019-05-11T15:51:08.066Z,101570.91
2019-05-11T15:54:12.516Z,101571.78
2019-05-11T15:57:17.960Z,101572.03
2019-05-11T16:00:23.531Z,101579.33
2019-05-11T16:03:27.861Z,101598.25
2019-05-11T16:06:32.153Z,101601.27
2019-05-11T16:09:38.040Z,101612.77
2019-05-11T16:12:42.386Z,101613.08
2019-05-11T16:15:47.687Z,101618.74
2019-05-11T16:18:52.276Z,101623.91
2019-05-11T16:21:56.610Z,101629.48
2019-05-11T16:25:09.667Z,101630.31
2019-05-11T16:28:18.736Z,101630.05
2019-05-11T16:31:22.533Z,101643.88
2019-05-11T16:34:27.754Z,101646.17
2019-05-11T16:37:32.339Z,101649.73
2019-05-11T16:40:38.574Z,101658.75
2019-05-11T16:43:42.893Z,101662.59
2019-05-11T16:46:48.023Z,101664.74
2019-05-11T16:49:53.302Z,101674.05
2019-05-11T16:52:58.573Z,101678.37
2019-05-11T16:56:03.027Z,101686.34
2019-05-11T16:59:10.352Z,101698.94
2019-05-11T17:02:14.806Z,101690.62
2019-05-11T17:05:26.605Z,101703.09
2019-05-11T17:08:27.502Z,101699.28
2019-05-11T17:11:31.142Z,101705.02
2019-05-11T17:14:39.010Z,101705.91
2019-05-11T17:17:44.391Z,101708.74
2019-05-11T17:20:48.716Z,101728.72
2019-05-11T17:23:53.005Z,101727.95
2019-05-11T17:27:00.337Z,101724.74
2019-05-11T17:30:05.568Z,101743.64
2019-05-11T17:33:09.888Z,101753.66
2019-05-11T17:36:15.506Z,101751.45
2019-05-11T17:39:19.827Z,101763.67
2019-05-11T17:42:24.148Z,101762.43
2019-05-11T17:45:28.444Z,101767.73
2019-05-11T17:48:32.775Z,101772.78
2019-05-11T17:51:39.465Z,101780.56
2019-05-11T17:54:43.773Z,101789.55
2019-05-11T17:57:49.699Z,101787.44
2019-05-11T18:00:54.367Z,101800.13
2019-05-11T18:03:58.649Z,101808.96
2019-05-11T18:07:02.978Z,101812.28
2019-05-11T18:10:08.177Z,101817.79
2019-05-11T18:13:12.701Z,101824.56
2019-05-11T18:16:18.717Z,101825.89
2019-05-11T18:19:23.115Z,101830.88
2019-05-11T18:22:28.463Z,101834.88
2019-05-11T18:25:32.950Z,101844.25
2019-05-11T18:28:37.973Z,101844.25
2019-05-11T18:31:42.352Z,101831.16
2019-05-11T18:34:48.465Z,101851.63
2019-05-11T18:37:55.838Z,101853.05
2019-05-11T18:41:00.280Z,101861.63
2019-05-11T18:44:05.057Z,101871.06
2019-05-11T18:47:09.523Z,101872.75
2019-05-11T18:50:29.054Z,101889.32
2019-05-11T18:53:20.284Z,101888.00
2019-05-11T18:56:24.679Z,101888.00
2019-05-11T18:59:29.027Z,101904.45
2019-05-11T19:02:33.592Z,101904.45
2019-05-11T19:05:38.551Z,101904.13
2019-05-11T19:08:43.070Z,101920.53
2019-05-11T19:11:48.891Z,101912.25
2019-05-11T19:14:54.545Z,101912.25
2019-05-11T19:17:58.946Z,101918.09
2019-05-11T19:21:03.491Z,101918.11
2019-05-11T19:24:09.569Z,101914.17
2019-05-11T19:27:13.939Z,101924.41
2019-05-11T19:30:18.646Z,101925.81
2019-05-11T19:33:23.029Z,101944.87
2019-05-11T19:36:27.793Z,101947.95
2019-05-11T19:39:32.178Z,101947.98
2019-05-11T19:42:53.641Z,101958.15
2019-05-11T19:45:58.122Z,101963.49
2019-05-11T19:49:02.667Z,101971.46
2019-05-11T19:52:08.611Z,101979.02
2019-05-11T19:55:13.372Z,101988.75
2019-05-11T19:58:19.244Z,101992.29
2019-05-11T20:01:23.829Z,101990.55
2019-05-11T20:04:29.013Z,102006.00
2019-05-11T20:07:33.351Z,102001.14
2019-05-11T20:10:38.265Z,102006.44
2019-05-11T20:13:42.918Z,102009.96
2019-05-11T20:16:47.829Z,102000.67
2019-05-11T20:19:52.233Z,102013.94
2019-05-11T20:22:58.477Z,102015.28
2019-05-11T20:26:02.789Z,102012.18
2019-05-11T20:29:08.083Z,102029.38
2019-05-11T20:32:12.729Z,102031.56
2019-05-11T20:35:17.092Z,102028.02
2019-05-11T20:38:21.482Z,102040.37
2019-05-11T20:41:27.935Z,102039.92
2019-05-11T20:44:32.022Z,102040.78
2019-05-11T20:47:38.221Z,102044.75
2019-05-11T20:50:42.365Z,102052.22
2019-05-11T20:53:48.850Z,102059.70
2019-05-11T20:56:52.709Z,102061.03
2019-05-11T20:59:57.621Z,102065.41
2019-05-11T21:03:01.998Z,102068.01
2019-05-11T21:06:08.058Z,102067.98
2019-05-11T21:09:12.733Z,102071.05
2019-05-11T21:12:18.455Z,102079.83
2019-05-11T21:15:31.623Z,102084.70
2019-05-11T21:18:33.404Z,102087.73
2019-05-11T21:21:49.593Z,102093.00
2019-05-11T21:24:43.942Z,102094.83
2019-05-11T21:27:48.867Z,102104.91
2019-05-11T21:30:53.247Z,102109.23
2019-05-11T21:33:57.531Z,102116.28
2019-05-11T21:37:01.893Z,102110.95
2019-05-11T21:40:08.485Z,102113.12
2019-05-11T21:43:12.596Z,102115.77
2019-05-11T21:46:18.096Z,102113.89
2019-05-11T21:49:22.643Z,102118.75
2019-05-11T21:52:28.756Z,102110.81
2019-05-11T21:55:37.759Z,102124.84
2019-05-11T21:58:40.974Z,102126.22
2019-05-11T22:01:45.344Z,102133.20
2019-05-11T22:04:49.789Z,102137.17
2019-05-11T22:07:54.090Z,102141.10
2019-05-11T22:10:59.996Z,102140.62
2019-05-11T22:14:04.620Z,102141.95
2019-05-11T22:17:08.931Z,102152.41
2019-05-11T22:20:13.297Z,102163.47
2019-05-11T22:23:18.344Z,102162.52
2019-05-11T22:26:22.625Z,102168.70
2019-05-11T22:29:28.603Z,102164.25
2019-05-11T22:32:32.939Z,102170.88
2019-05-11T22:35:37.719Z,102169.98
2019-05-11T22:38:42.072Z,102172.18
2019-05-11T22:41:48.145Z,102179.17
2019-05-11T22:44:54.386Z,102184.93
2019-05-11T22:47:58.682Z,102185.42
2019-05-11T22:51:02.958Z,102189.74
2019-05-11T22:54:11.028Z,102187.95
2019-05-11T22:57:14.649Z,102196.36
2019-05-11T23:00:27.904Z,102200.38
2019-05-11T23:03:32.270Z,102203.38
2019-05-11T23:06:40.308Z,102211.69
2019-05-11T23:09:42.538Z,102210.72
2019-05-11T23:12:48.263Z,102214.52
2019-05-11T23:15:52.658Z,102214.96
2019-05-11T23:18:56.921Z,102216.20
2019-05-11T23:22:01.178Z,102213.63
2019-05-11T23:25:08.116Z,102211.77
2019-05-11T23:28:12.372Z,102213.00
2019-05-11T23:31:16.635Z,102211.25
2019-05-11T23:34:20.903Z,102217.45
2019-05-11T23:37:25.190Z,102221.97
2019-05-11T23:40:29.463Z,102213.06
2019-05-11T23:43:33.740Z,102217.03
2019-05-11T23:46:38.680Z,102216.13
2019-05-11T23:49:43.066Z,102219.61
2019-05-11T23:52:50.135Z,102227.11
2019-05-11T23:55:53.423Z,102227.53
2019-05-11T23:58:57.966Z,102228.80
